Flight Track Log - Related Links

Times and Time Zones

All times are in EDT time to prevent confusion due to time zone crossing. See the ASQ5413 flight status page for this flight to view local times or setup timezone preferences in your user account.

Time Position Orientation Groundspeed Altitude Reporting Facility
EDT Latitude Longitude Course Direction KTS MPH feet Rate Location/Type
Tue 09:07:28 AM 36.4031 -82.4911 221° Southwest 196 226 4,900  Level Atlanta Center
Tue 09:08:28 AM 36.3494 -82.5489 221° Southwest 237 273 7,500 2,500 Climbing Atlanta Center
Tue 09:09:28 AM 36.2961 -82.6064 221° Southwest 261 300 9,900 2,550 Climbing Atlanta Center
Tue 09:10:28 AM 36.2383 -82.6692 214° Southwest 266 306 12,600 1,950 Climbing Atlanta Center
Tue 09:11:28 AM 36.1703 -82.7269 215° Southwest 288 331 13,800 1,200 Climbing Atlanta Center
Tue 09:12:28 AM 36.0958 -82.7925 215° Southwest 310 357 15,000 1,300 Climbing Atlanta Center
Tue 09:13:28 AM 36.0172 -82.8603 216° Southwest 337 388 16,400 1,400 Climbing Atlanta Center
Tue 09:14:28 AM 35.9386 -82.9308 213° Southwest 352 405 17,800 1,400 Climbing Atlanta Center
Tue 09:15:28 AM 35.8578 -82.9958 210° Southwest 352 405 19,200 1,350 Climbing Atlanta Center
Tue 09:16:28 AM 35.7728 -83.0558 192° South 352 405 20,500 1,100 Climbing Atlanta Center
Tue 09:17:28 AM 35.6811 -83.0800 190° South 358 412 21,400 750 Climbing Atlanta Center
Tue 09:18:28 AM 35.5811 -83.1017 190° South 373 429 22,000 300 Climbing Atlanta Center
Tue 09:19:28 AM 35.4686 -83.1258 191° South 393 452 22,000  Level Atlanta Center
Tue 09:20:28 AM 35.3561 -83.1525 190° South 411 473 22,000  Level Atlanta Center
Tue 09:21:28 AM 35.2436 -83.1767 191° South 416 479 22,000  Level Atlanta Center
Tue 09:22:28 AM 35.1186 -83.2058 190° South 416 479 22,000  Level Atlanta Center
Tue 09:23:28 AM 35.0042 -83.2297 191° South 415 478 22,000  Level Atlanta Center
Tue 09:24:28 AM 34.8875 -83.2564 208° Southwest 415 478 22,000  Level Atlanta Center
Tue 09:25:28 AM 34.7897 -83.3206 212° Southwest 409 471 22,000  Level Atlanta Center
Tue 09:26:28 AM 34.6961 -83.3919 212° Southwest 400 460 22,000  Level Atlanta Center
Tue 09:27:28 AM 34.6111 -83.4558 212° Southwest 400 460 22,000 -150 Level Atlanta Center
Tue 09:28:28 AM 34.5133 -83.5294 211° Southwest 411 473 21,700 -1,400 Descending Atlanta Center
Tue 09:29:28 AM 34.4197 -83.5981 212° Southwest 405 466 19,200 -2,380 Descending Atlanta Center
Tue 09:30:29 AM 34.3342 -83.6639 210° Southwest 388 447 16,900 -2,300 Descending Atlanta Center
Tue 09:31:28 AM 34.2467 -83.7247 213° Southwest 377 434 14,600 -2,168 Descending Atlanta Center
Tue 09:32:28 AM 34.1697 -83.7853 213° Southwest 352 405 12,600 -1,300 Descending Atlanta Center
Tue 09:33:28 AM 34.0925 -83.8456 216° Southwest 323 372 12,000 -625 Descending Atlanta Center
Tue 09:34:04 AM 34.0500 -83.8833 220° Southwest 274 315 11,600 -1,125 Descending Atlanta TRACON
Tue 09:35:04 AM 34.0000 -83.9333 203° Southwest 270 311 10,200 -800 Descending Atlanta TRACON
Tue 09:36:04 AM 33.9333 -83.9667 180° South 278 320 10,000 -157 Descending Atlanta TRACON
Tue 09:36:59 AM 33.8667 -83.9667 180° South 259 298 9,900 -684 Descending Atlanta TRACON
Tue 09:37:58 AM 33.8000 -83.9667 184° South 225 259 8,700 -1,213 Descending Atlanta TRACON
Tue 09:38:28 AM 33.7714 -83.9689 180° South 233 268 8,100 -1,133 Descending Atlanta Center
Tue 09:39:28 AM 33.7108 -83.9689 196° South 228 262 7,000 -650 Descending Atlanta Center
Tue 09:40:28 AM 33.6586 -83.9864 260° West 228 262 6,800 -585 Descending Atlanta Center
Tue 09:42:53 AM 33.6333 -84.1667 270° West 198 228 5,000 -814 Descending Atlanta TRACON
Tue 09:43:47 AM 33.6333 -84.2167 270° West 184 212 4,100 -947 Descending Atlanta TRACON
Tue 09:44:47 AM 33.6333 -84.2833 270° West 184 212 3,200 -900 Descending Atlanta TRACON
Tue 09:45:47 AM 33.6333 -84.3333 270° West 159 183 2,300 -850 Descending Atlanta TRACON
Tue 09:46:47 AM 33.6333 -84.3833 270° West 148 170 1,500 -800 Descending Atlanta TRACON

Login

Don't have an account? Register now (free) for customized features, flight alerts, and more!